createdAt,value
2018-05-11T00:01:27.095Z,56.90
2018-05-11T00:03:55.603Z,57.20
2018-05-11T00:06:24.131Z,56.60
2018-05-11T00:08:52.681Z,56.50
2018-05-11T00:11:21.175Z,56.60
2018-05-11T00:13:49.715Z,56.70
2018-05-11T00:16:19.086Z,55.90
2018-05-11T00:18:47.590Z,55.90
2018-05-11T00:21:16.098Z,55.90
2018-05-11T00:30:28.290Z,55.90
2018-05-11T00:32:56.778Z,56.50
2018-05-11T00:35:25.280Z,56.50
2018-05-11T00:37:53.799Z,57.00
2018-05-11T00:40:22.301Z,58.20
2018-05-11T00:42:50.821Z,59.50
2018-05-11T00:45:19.341Z,60.00
2018-05-11T00:47:47.860Z,60.60
2018-05-11T00:50:17.216Z,61.30
2018-05-11T00:52:45.694Z,61.30
2018-05-11T00:55:26.656Z,61.70
2018-05-11T00:57:55.128Z,61.60
2018-05-11T01:00:23.629Z,61.90
2018-05-11T01:02:52.181Z,61.70
2018-05-11T01:05:20.826Z,61.80
2018-05-11T01:07:49.349Z,61.90
2018-05-11T01:10:17.897Z,61.80
2018-05-11T01:12:46.438Z,61.80
2018-05-11T01:15:14.982Z,61.80
2018-05-11T01:17:43.480Z,61.50
2018-05-11T01:20:12.012Z,61.20
2018-05-11T01:22:40.695Z,61.30
2018-05-11T01:25:09.200Z,61.30
2018-05-11T01:27:38.620Z,61.50
2018-05-11T01:30:07.172Z,61.50
2018-05-11T01:32:35.704Z,61.60
2018-05-11T01:35:04.287Z,61.60
2018-05-11T01:37:32.812Z,61.80
2018-05-11T01:40:01.324Z,62.00
2018-05-11T01:42:30.641Z,61.40
2018-05-11T01:44:59.178Z,61.40
2018-05-11T01:47:27.669Z,61.60
2018-05-11T01:49:56.180Z,61.80
2018-05-11T01:52:24.752Z,61.70
2018-05-11T01:54:54.054Z,61.70
2018-05-11T01:57:22.554Z,61.60
2018-05-11T01:59:51.083Z,61.90
2018-05-11T02:02:19.664Z,62.60
2018-05-11T02:04:48.309Z,63.10
2018-05-11T02:07:16.865Z,63.70
2018-05-11T02:09:46.223Z,63.70
2018-05-11T02:12:14.837Z,63.60
2018-05-11T02:14:43.472Z,63.90
2018-05-11T02:17:11.981Z,64.30
2018-05-11T02:19:40.587Z,64.90
2018-05-11T02:22:09.113Z,65.70
2018-05-11T02:24:37.612Z,65.80
2018-05-11T02:27:06.224Z,66.20
2018-05-11T02:29:34.748Z,66.50
2018-05-11T02:32:03.384Z,67.00
2018-05-11T02:34:31.882Z,67.40
2018-05-11T02:37:00.499Z,67.50
2018-05-11T02:39:29.003Z,67.90
2018-05-11T02:41:58.330Z,68.20
2018-05-11T02:44:26.838Z,68.20
2018-05-11T02:46:55.462Z,68.20
2018-05-11T02:49:24.724Z,68.00
2018-05-11T02:51:53.243Z,68.10
2018-05-11T02:54:22.624Z,66.50
2018-05-11T02:56:51.123Z,66.40
2018-05-11T02:59:19.678Z,66.90
2018-05-11T03:01:48.181Z,67.30
2018-05-11T03:04:16.803Z,67.20
2018-05-11T03:06:45.317Z,67.70
2018-05-11T03:09:13.868Z,67.90
2018-05-11T03:11:42.497Z,67.80
2018-05-11T03:14:11.818Z,67.40
2018-05-11T03:16:40.403Z,67.40
2018-05-11T03:19:08.889Z,66.90
2018-05-11T03:21:37.497Z,66.10
2018-05-11T03:24:06.031Z,66.00
2018-05-11T03:26:34.564Z,66.20
2018-05-11T03:29:03.101Z,66.70
2018-05-11T03:31:31.634Z,67.00
2018-05-11T03:34:00.221Z,66.80
2018-05-11T03:36:28.758Z,66.90
2018-05-11T03:38:57.278Z,66.30
2018-05-11T03:41:25.872Z,66.00
2018-05-11T03:43:54.406Z,66.00
2018-05-11T03:46:22.907Z,66.10
2018-05-11T03:48:51.422Z,66.00
2018-05-11T03:51:20.008Z,65.60
2018-05-11T03:53:48.506Z,65.40
2018-05-11T03:56:17.000Z,65.20
2018-05-11T03:58:45.482Z,65.30
2018-05-11T04:01:25.745Z,65.30
2018-05-11T04:04:06.224Z,65.30
2018-05-11T04:06:46.612Z,65.30
2018-05-11T04:09:15.086Z,65.50
2018-05-11T04:11:44.363Z,65.60
2018-05-11T04:14:13.859Z,65.60
2018-05-11T04:16:42.354Z,66.00
2018-05-11T04:19:10.933Z,66.00
2018-05-11T04:21:39.448Z,65.60
2018-05-11T04:24:07.984Z,65.30
2018-05-11T04:26:36.644Z,64.60
2018-05-11T04:29:05.165Z,64.40
2018-05-11T04:31:34.438Z,63.20
2018-05-11T04:34:02.968Z,63.20
2018-05-11T04:36:32.272Z,62.90
2018-05-11T04:39:00.869Z,62.90
2018-05-11T04:41:29.378Z,62.70
2018-05-11T04:43:57.882Z,62.70
2018-05-11T04:46:26.570Z,62.80
2018-05-11T04:48:55.098Z,62.30
2018-05-11T04:51:23.647Z,61.50
2018-05-11T04:53:52.219Z,61.40
2018-05-11T04:56:20.795Z,61.00
2018-05-11T04:58:49.309Z,60.80
2018-05-11T05:01:17.806Z,60.60
2018-05-11T05:03:46.431Z,61.00
2018-05-11T05:06:14.989Z,61.10
2018-05-11T05:08:43.564Z,61.20
2018-05-11T05:11:12.882Z,61.10
2018-05-11T05:13:41.364Z,61.10
2018-05-11T05:16:09.905Z,61.20
2018-05-11T05:18:38.405Z,61.30
2018-05-11T05:21:06.942Z,61.50
2018-05-11T05:23:35.445Z,61.90
2018-05-11T05:26:04.838Z,61.90
2018-05-11T05:28:33.372Z,61.90
2018-05-11T05:31:01.942Z,61.90
2018-05-11T05:33:30.425Z,61.80
2018-05-11T05:35:58.939Z,62.10
2018-05-11T05:38:27.562Z,61.10
2018-05-11T05:40:56.823Z,57.90
2018-05-11T05:43:25.366Z,57.80
2018-05-11T05:45:53.951Z,55.60
2018-05-11T05:48:22.443Z,55.00
2018-05-11T05:50:50.947Z,55.10
2018-05-11T05:53:19.571Z,54.40
2018-05-11T05:55:48.077Z,54.20
2018-05-11T05:58:16.653Z,55.00
2018-05-11T06:00:45.169Z,55.50
2018-05-11T06:03:13.892Z,55.00
2018-05-11T06:05:42.387Z,55.00
2018-05-11T06:08:10.962Z,55.30
2018-05-11T06:10:39.552Z,55.50
2018-05-11T06:13:08.079Z,54.70
2018-05-11T06:15:36.613Z,54.50
2018-05-11T06:18:05.985Z,54.00
2018-05-11T06:20:34.482Z,54.00
2018-05-11T06:23:03.004Z,53.80
2018-05-11T06:25:31.593Z,54.00
2018-05-11T06:28:00.100Z,52.60
2018-05-11T06:30:28.664Z,53.10
2018-05-11T06:32:57.273Z,53.00
2018-05-11T06:35:25.781Z,52.10
2018-05-11T06:37:54.273Z,51.60
2018-05-11T06:40:22.835Z,50.70
2018-05-11T06:42:51.364Z,50.90
2018-05-11T06:45:19.875Z,51.10
2018-05-11T06:47:48.404Z,51.10
2018-05-11T06:50:17.096Z,51.10
2018-05-11T06:52:45.628Z,51.10
2018-05-11T06:55:14.176Z,50.50
2018-05-11T06:57:42.807Z,50.20
2018-05-11T07:00:11.323Z,49.80
2018-05-11T07:02:40.591Z,51.20
2018-05-11T07:05:09.088Z,51.20
2018-05-11T07:07:37.650Z,51.20
2018-05-11T07:10:06.157Z,50.50
2018-05-11T07:12:34.649Z,50.30
2018-05-11T07:15:03.175Z,50.10
2018-05-11T07:17:31.776Z,50.40
2018-05-11T07:20:00.282Z,49.90
2018-05-11T07:22:28.783Z,50.30
2018-05-11T07:24:57.308Z,50.30
2018-05-11T07:27:25.829Z,50.40
2018-05-11T07:29:54.324Z,51.10
2018-05-11T07:32:23.688Z,51.10
2018-05-11T07:34:52.342Z,51.10
2018-05-11T07:37:20.945Z,51.20
2018-05-11T07:39:49.453Z,51.10
2018-05-11T07:42:17.945Z,50.70
2018-05-11T07:44:46.470Z,50.20
2018-05-11T07:47:15.085Z,50.80
2018-05-11T07:49:44.356Z,52.90
2018-05-11T07:52:12.858Z,52.90
2018-05-11T07:54:41.356Z,53.70
2018-05-11T07:57:10.022Z,53.60
2018-05-11T07:59:38.549Z,54.30
2018-05-11T08:02:07.102Z,55.00
2018-05-11T08:04:35.624Z,54.90
2018-05-11T08:07:04.242Z,55.70
2018-05-11T08:09:32.870Z,55.90
2018-05-11T08:12:01.353Z,56.40
2018-05-11T08:14:29.938Z,56.70
2018-05-11T08:16:58.559Z,55.90
2018-05-11T08:19:27.079Z,55.80
2018-05-11T08:21:55.675Z,56.50
2018-05-11T08:24:24.173Z,55.80
2018-05-11T08:26:52.819Z,55.40
2018-05-11T08:29:21.275Z,54.40
2018-05-11T08:31:49.866Z,54.40
2018-05-11T08:34:18.363Z,54.70
2018-05-11T08:36:46.900Z,54.40
2018-05-11T08:39:15.417Z,54.30
2018-05-11T08:41:43.979Z,54.30
2018-05-11T08:44:12.592Z,54.30
2018-05-11T08:46:41.095Z,54.10
2018-05-11T08:49:09.698Z,54.50
2018-05-11T08:51:38.195Z,54.10
2018-05-11T08:54:06.752Z,53.90
2018-05-11T08:56:35.307Z,53.80
2018-05-11T08:59:03.887Z,54.00
2018-05-11T09:01:32.412Z,53.80
2018-05-11T09:04:00.902Z,54.00
2018-05-11T09:06:29.516Z,54.20
2018-05-11T09:08:58.034Z,54.30
2018-05-11T09:11:26.643Z,54.30
2018-05-11T09:13:55.176Z,53.70
2018-05-11T09:16:23.792Z,53.80
2018-05-11T09:18:52.293Z,53.70
2018-05-11T09:21:20.985Z,53.90
2018-05-11T09:23:49.580Z,54.10
2018-05-11T09:26:18.831Z,54.00
2018-05-11T09:28:47.328Z,54.00
2018-05-11T09:31:15.817Z,54.40
2018-05-11T09:33:44.345Z,54.50
2018-05-11T09:36:12.848Z,54.40
2018-05-11T09:38:41.390Z,54.20
2018-05-11T09:41:09.904Z,54.00
2018-05-11T09:43:38.403Z,53.90
2018-05-11T09:46:07.845Z,53.90
2018-05-11T09:48:36.468Z,53.70
2018-05-11T09:51:05.736Z,53.30
2018-05-11T09:53:34.241Z,53.30
2018-05-11T09:56:02.743Z,51.90
2018-05-11T09:58:31.396Z,52.00
2018-05-11T10:01:00.660Z,50.70
2018-05-11T10:03:29.284Z,50.80
2018-05-11T10:05:57.874Z,50.30
2018-05-11T10:08:26.365Z,50.60
2018-05-11T10:10:54.971Z,50.30
2018-05-11T10:13:23.531Z,49.80
2018-05-11T10:15:52.046Z,48.90
2018-05-11T10:18:20.601Z,48.20
2018-05-11T10:20:49.168Z,47.90
2018-05-11T10:23:17.671Z,47.20
2018-05-11T10:25:46.159Z,47.20
2018-05-11T10:28:14.696Z,47.50
2018-05-11T10:30:43.296Z,47.90
2018-05-11T10:33:11.792Z,48.20
2018-05-11T10:35:40.297Z,47.60
2018-05-11T10:38:08.837Z,46.30
2018-05-11T10:40:37.331Z,47.40
2018-05-11T10:43:05.887Z,46.90
2018-05-11T10:45:35.183Z,46.10
2018-05-11T10:48:04.515Z,47.00
2018-05-11T10:50:33.051Z,47.00
2018-05-11T10:53:01.539Z,45.50
2018-05-11T10:55:30.171Z,43.60
2018-05-11T10:57:58.691Z,44.30
2018-05-11T11:00:27.308Z,43.40
2018-05-11T11:02:56.552Z,43.60
2018-05-11T11:05:25.047Z,43.60
2018-05-11T11:07:53.659Z,45.20
2018-05-11T11:10:22.149Z,44.90
2018-05-11T11:12:50.814Z,44.80
2018-05-11T11:15:19.313Z,45.10
2018-05-11T11:17:47.875Z,44.20
2018-05-11T11:20:17.192Z,42.60
2018-05-11T11:22:46.577Z,41.10
2018-05-11T11:25:15.192Z,41.00
2018-05-11T11:27:44.551Z,40.50
2018-05-11T11:30:13.034Z,40.40
2018-05-11T11:32:41.531Z,41.30
2018-05-11T11:35:10.019Z,40.80
2018-05-11T11:37:38.621Z,39.20
2018-05-11T11:40:07.118Z,39.40
2018-05-11T11:42:35.624Z,38.30
2018-05-11T11:45:04.223Z,38.90
2018-05-11T11:54:17.490Z,38.50
2018-05-11T11:56:46.003Z,39.30
2018-05-11T11:59:14.502Z,38.40
2018-05-11T12:01:43.084Z,38.90
2018-05-11T12:04:12.400Z,39.10
2018-05-11T12:06:40.914Z,39.10
2018-05-11T12:09:09.535Z,39.40
2018-05-11T12:11:38.049Z,39.50
2018-05-11T12:14:06.585Z,38.30
2018-05-11T12:16:35.114Z,38.50
2018-05-11T12:19:03.622Z,38.70
2018-05-11T12:21:32.102Z,39.40
2018-05-11T12:24:00.671Z,38.90
2018-05-11T12:26:29.280Z,38.90
2018-05-11T12:28:58.593Z,37.30
2018-05-11T12:31:27.115Z,37.20
2018-05-11T12:33:55.621Z,38.50
2018-05-11T12:36:24.133Z,38.20
2018-05-11T12:38:52.628Z,37.80
2018-05-11T12:41:21.242Z,37.30
2018-05-11T12:43:50.517Z,38.50
2018-05-11T12:46:19.022Z,38.50
2018-05-11T12:48:47.529Z,38.10
2018-05-11T12:51:16.049Z,38.60
2018-05-11T12:53:44.584Z,39.00
2018-05-11T12:56:13.216Z,38.60
2018-05-11T12:58:41.723Z,38.10
2018-05-11T13:01:10.232Z,37.50
2018-05-11T13:03:38.856Z,37.70
2018-05-11T13:06:07.359Z,37.10
2018-05-11T13:08:36.005Z,37.70
2018-05-11T13:11:04.511Z,37.40
2018-05-11T13:13:33.284Z,36.20
2018-05-11T13:16:01.795Z,37.30
2018-05-11T13:18:31.067Z,37.90
2018-05-11T13:20:59.574Z,37.90
2018-05-11T13:23:28.079Z,38.00
2018-05-11T13:25:57.388Z,38.00
2018-05-11T13:28:26.013Z,37.90
2018-05-11T13:30:54.533Z,37.10
2018-05-11T13:33:23.055Z,37.70
2018-05-11T13:35:51.666Z,38.00
2018-05-11T13:38:20.194Z,38.40
2018-05-11T13:40:48.824Z,40.20
2018-05-11T13:43:17.377Z,39.50
2018-05-11T13:45:45.910Z,38.90
2018-05-11T13:48:14.503Z,37.70
2018-05-11T13:50:43.086Z,36.60
2018-05-11T13:53:11.574Z,36.00
2018-05-11T13:55:40.136Z,35.50
2018-05-11T13:58:08.753Z,35.50
2018-05-11T14:00:37.270Z,36.60
2018-05-11T14:03:05.808Z,36.60
2018-05-11T14:05:34.328Z,37.00
2018-05-11T14:08:02.845Z,35.40
2018-05-11T14:10:31.331Z,36.40
2018-05-11T14:12:59.818Z,36.70
2018-05-11T14:15:28.335Z,37.10
2018-05-11T14:17:56.893Z,38.40
2018-05-11T14:20:25.406Z,39.20
2018-05-11T14:22:53.983Z,38.20
2018-05-11T14:25:22.513Z,39.00
2018-05-11T14:27:51.058Z,38.00
2018-05-11T14:30:19.542Z,38.20
2018-05-11T14:32:48.077Z,38.50
2018-05-11T14:35:16.603Z,39.30
2018-05-11T14:37:45.122Z,39.30
2018-05-11T14:40:13.610Z,40.00
2018-05-11T14:42:42.115Z,40.20
2018-05-11T14:45:10.622Z,40.40
2018-05-11T14:47:39.138Z,41.00
2018-05-11T14:50:07.845Z,41.10
2018-05-11T14:52:36.465Z,40.90
2018-05-11T14:55:05.793Z,39.70
2018-05-11T14:57:34.298Z,39.70
2018-05-11T15:00:02.814Z,39.90
2018-05-11T15:02:31.328Z,39.60
2018-05-11T15:04:59.869Z,39.70
2018-05-11T15:07:28.376Z,39.70
2018-05-11T15:09:56.897Z,39.70
2018-05-11T15:12:25.423Z,40.20
2018-05-11T15:14:53.982Z,40.20
2018-05-11T15:17:23.250Z,41.50
2018-05-11T15:19:51.837Z,41.40
2018-05-11T15:22:20.325Z,41.30
2018-05-11T15:24:48.886Z,41.30
2018-05-11T15:27:17.420Z,41.30
2018-05-11T15:29:45.921Z,41.30
2018-05-11T15:32:14.424Z,41.20
2018-05-11T15:34:42.994Z,41.50
2018-05-11T15:37:11.532Z,41.80
2018-05-11T15:39:40.039Z,41.30
2018-05-11T15:42:09.327Z,41.50
2018-05-11T15:44:37.838Z,41.50
2018-05-11T15:47:07.130Z,40.00
2018-05-11T15:49:36.396Z,39.50
2018-05-11T15:52:04.908Z,39.50
2018-05-11T15:54:33.450Z,39.60
2018-05-11T15:57:02.008Z,40.20
2018-05-11T15:59:30.528Z,40.40
2018-05-11T16:01:59.172Z,39.90
2018-05-11T16:04:27.662Z,39.60
2018-05-11T16:06:56.209Z,39.90
2018-05-11T16:09:24.849Z,39.60
2018-05-11T16:11:53.325Z,39.00
2018-05-11T16:14:21.829Z,39.80
2018-05-11T16:16:50.346Z,40.00
2018-05-11T16:19:18.875Z,39.70
2018-05-11T16:21:47.507Z,39.50
2018-05-11T16:24:16.093Z,39.80
2018-05-11T16:26:44.636Z,39.60
2018-05-11T16:29:13.909Z,39.90
2018-05-11T16:31:42.536Z,39.90
2018-05-11T16:34:11.067Z,39.90
2018-05-11T16:36:39.588Z,39.90
2018-05-11T16:39:08.397Z,39.50
2018-05-11T16:41:36.934Z,39.50
2018-05-11T16:44:05.474Z,40.10
2018-05-11T16:46:34.088Z,39.40
2018-05-11T16:49:02.678Z,39.80
2018-05-11T16:51:31.171Z,39.50
2018-05-11T16:53:59.752Z,39.70
2018-05-11T16:56:28.320Z,39.10
2018-05-11T16:58:56.824Z,39.00
2018-05-11T17:01:25.385Z,39.10
2018-05-11T17:03:53.884Z,39.50
2018-05-11T17:06:22.385Z,39.20
2018-05-11T17:08:50.999Z,39.60
2018-05-11T17:11:19.472Z,39.40
2018-05-11T17:13:47.957Z,39.70
2018-05-11T17:16:16.482Z,39.80
2018-05-11T17:18:45.014Z,39.90
2018-05-11T17:21:13.641Z,40.00
2018-05-11T17:23:42.146Z,40.00
2018-05-11T17:26:10.639Z,40.10
2018-05-11T17:28:39.154Z,40.50
2018-05-11T17:31:07.778Z,40.30
2018-05-11T17:33:36.278Z,40.20
2018-05-11T17:36:05.339Z,40.20
2018-05-11T17:38:33.964Z,40.10
2018-05-11T17:41:02.472Z,39.30
2018-05-11T17:43:30.957Z,39.50
2018-05-11T17:45:59.485Z,39.50
2018-05-11T17:48:27.986Z,40.00
2018-05-11T17:50:56.604Z,40.20
2018-05-11T17:53:25.126Z,41.30
2018-05-11T17:55:53.725Z,41.90
2018-05-11T17:58:22.271Z,42.20
2018-05-11T18:00:50.764Z,42.70
2018-05-11T18:03:19.268Z,43.20
2018-05-11T18:05:50.163Z,43.60
2018-05-11T18:08:18.661Z,44.00
2018-05-11T18:10:47.147Z,44.20
2018-05-11T18:13:15.687Z,44.50
2018-05-11T18:15:45.087Z,45.20
2018-05-11T18:18:13.591Z,45.20
2018-05-11T18:20:42.078Z,45.40
2018-05-11T18:23:10.627Z,46.00
2018-05-11T18:25:39.154Z,46.20
2018-05-11T18:28:07.658Z,46.60
2018-05-11T18:30:36.235Z,46.70
2018-05-11T18:33:04.829Z,47.40
2018-05-11T18:35:33.323Z,47.40
2018-05-11T18:38:01.953Z,47.80
2018-05-11T18:40:30.562Z,48.20
2018-05-11T18:42:59.185Z,48.40
2018-05-11T18:45:27.729Z,48.40
2018-05-11T18:47:56.217Z,48.70
2018-05-11T18:50:24.709Z,48.80
2018-05-11T18:52:53.255Z,49.00
2018-05-11T18:55:21.826Z,49.30
2018-05-11T18:57:50.338Z,49.50
2018-05-11T19:00:18.838Z,49.70
2018-05-11T19:02:47.433Z,50.00
2018-05-11T19:05:15.961Z,49.90
2018-05-11T19:07:44.502Z,50.40
2018-05-11T19:10:13.022Z,50.50
2018-05-11T19:12:42.281Z,50.60
2018-05-11T19:15:10.765Z,50.60
2018-05-11T19:17:40.079Z,51.00
2018-05-11T19:20:08.705Z,51.00
2018-05-11T19:22:37.219Z,50.90
2018-05-11T19:25:05.775Z,51.00
2018-05-11T19:27:35.153Z,51.30
2018-05-11T19:30:03.752Z,51.30
2018-05-11T19:32:33.001Z,51.30
2018-05-11T19:35:01.496Z,51.30
2018-05-11T19:37:30.043Z,51.70
2018-05-11T19:39:58.552Z,51.90
2018-05-11T19:42:27.236Z,52.30
2018-05-11T19:44:56.433Z,52.70
2018-05-11T19:47:24.919Z,52.70
2018-05-11T19:49:53.419Z,52.90
2018-05-11T19:52:22.013Z,52.90
2018-05-11T19:54:50.514Z,53.20
2018-05-11T19:57:19.202Z,53.50
2018-05-11T19:59:47.810Z,53.60
2018-05-11T20:02:16.320Z,53.60
2018-05-11T20:04:44.886Z,53.70
2018-05-11T20:07:13.431Z,53.70
2018-05-11T20:09:42.737Z,54.30
2018-05-11T20:12:12.040Z,54.70
2018-05-11T20:14:40.654Z,54.70
2018-05-11T20:17:09.270Z,54.90
2018-05-11T20:19:37.762Z,55.30
2018-05-11T20:22:06.272Z,55.50
2018-05-11T20:24:34.815Z,55.80
2018-05-11T20:27:03.456Z,55.80
2018-05-11T20:29:32.014Z,55.70
2018-05-11T20:32:01.321Z,55.70
2018-05-11T20:34:29.867Z,55.70
2018-05-11T20:36:58.386Z,55.80
2018-05-11T20:39:26.921Z,56.00
2018-05-11T20:41:55.455Z,55.90
2018-05-11T20:44:23.993Z,56.20
2018-05-11T20:46:52.501Z,56.20
2018-05-11T20:49:20.994Z,56.40
2018-05-11T20:51:49.509Z,56.50
2018-05-11T20:54:18.101Z,56.70
2018-05-11T20:56:46.587Z,56.80
2018-05-11T20:59:15.127Z,57.00
2018-05-11T21:01:43.636Z,57.00
2018-05-11T21:04:12.134Z,57.10
2018-05-11T21:06:40.684Z,57.40
2018-05-11T21:09:09.298Z,57.60
2018-05-11T21:11:37.809Z,57.90
2018-05-11T21:14:06.318Z,58.10
2018-05-11T21:16:34.904Z,58.30
2018-05-11T21:19:03.440Z,58.30
2018-05-11T21:21:31.942Z,58.50
2018-05-11T21:24:01.211Z,58.70
2018-05-11T21:26:30.530Z,58.60
2018-05-11T21:28:59.009Z,58.50
2018-05-11T21:31:27.517Z,58.50
2018-05-11T21:33:56.784Z,58.90
2018-05-11T21:36:25.420Z,58.90
2018-05-11T21:38:54.007Z,59.00
2018-05-11T21:41:22.536Z,59.10
2018-05-11T21:43:51.042Z,59.30
2018-05-11T21:46:19.576Z,59.50
2018-05-11T21:48:48.085Z,59.80
2018-05-11T21:51:16.557Z,60.00
2018-05-11T21:53:45.036Z,59.90
2018-05-11T21:56:13.540Z,60.00
2018-05-11T21:58:42.057Z,60.00
2018-05-11T22:01:10.560Z,60.10
2018-05-11T22:03:39.058Z,60.00
2018-05-11T22:06:07.572Z,60.00
2018-05-11T22:08:36.037Z,60.00
2018-05-11T22:11:04.531Z,60.30
2018-05-11T22:13:33.112Z,60.70
2018-05-11T22:16:01.563Z,61.00
2018-05-11T22:18:30.129Z,61.00
2018-05-11T22:20:58.600Z,61.10
2018-05-11T22:23:27.956Z,62.00
2018-05-11T22:25:56.460Z,62.00
2018-05-11T22:28:24.944Z,62.10
2018-05-11T22:30:53.593Z,61.90
2018-05-11T22:33:22.095Z,62.00
2018-05-11T22:35:50.568Z,62.00
2018-05-11T22:38:19.182Z,62.00
2018-05-11T22:40:48.437Z,61.90
2018-05-11T22:43:16.909Z,61.90
2018-05-11T22:45:45.437Z,62.00
2018-05-11T22:48:13.957Z,62.20
2018-05-11T22:50:42.440Z,62.60
2018-05-11T22:53:10.933Z,62.60
2018-05-11T22:55:39.421Z,62.60
2018-05-11T22:58:07.941Z,62.70
2018-05-11T23:00:41.352Z,62.60
2018-05-11T23:03:09.917Z,62.90
2018-05-11T23:05:39.198Z,64.00
2018-05-11T23:08:07.732Z,63.30
2018-05-11T23:10:36.245Z,63.10
2018-05-11T23:13:04.817Z,63.20
2018-05-11T23:15:33.360Z,63.50
2018-05-11T23:18:01.895Z,64.10
2018-05-11T23:20:30.410Z,64.10
2018-05-11T23:22:58.962Z,64.30
2018-05-11T23:25:27.469Z,64.40
2018-05-11T23:27:56.730Z,64.60
2018-05-11T23:30:25.272Z,64.60
2018-05-11T23:32:53.877Z,64.70
2018-05-11T23:35:22.407Z,64.60
2018-05-11T23:37:51.014Z,64.50
2018-05-11T23:40:19.510Z,64.70
2018-05-11T23:42:48.019Z,64.30
2018-05-11T23:45:16.636Z,64.10
2018-05-11T23:47:45.142Z,64.10
2018-05-11T23:50:13.630Z,64.10
2018-05-11T23:52:42.129Z,64.10
2018-05-11T23:55:10.667Z,64.40
2018-05-11T23:57:39.158Z,64.80
